createdAt,value
2019-05-18T00:01:04.259Z,98
2019-05-18T00:06:36.800Z,98
2019-05-18T00:12:09.420Z,98
2019-05-18T00:17:41.950Z,98
2019-05-18T00:23:14.574Z,98
2019-05-18T00:28:47.111Z,98
2019-05-18T00:34:19.753Z,98
2019-05-18T00:39:52.260Z,98
2019-05-18T00:45:24.866Z,98
2019-05-18T00:50:57.385Z,98
2019-05-18T00:56:29.964Z,98
2019-05-18T01:02:02.561Z,98
2019-05-18T01:07:35.071Z,98
2019-05-18T01:13:07.621Z,98
2019-05-18T01:18:40.171Z,98
2019-05-18T01:24:12.770Z,98
2019-05-18T01:29:45.304Z,98
2019-05-18T01:35:17.824Z,97
2019-05-18T01:40:50.666Z,97
2019-05-18T01:46:23.184Z,97
2019-05-18T01:51:55.708Z,97
2019-05-18T01:57:28.127Z,98
2019-05-18T02:03:00.628Z,98
2019-05-18T02:08:33.919Z,98
2019-05-18T02:14:07.240Z,98
2019-05-18T02:19:40.554Z,99
2019-05-18T02:25:14.131Z,99
2019-05-18T02:30:46.068Z,99
2019-05-18T02:36:18.554Z,99
2019-05-18T02:41:51.066Z,98
2019-05-18T02:47:23.520Z,97
2019-05-18T02:52:56.054Z,96
2019-05-18T02:58:28.565Z,96
2019-05-18T03:04:01.002Z,96
2019-05-18T03:09:33.521Z,96
2019-05-18T03:15:06.086Z,96
2019-05-18T03:20:38.478Z,96
2019-05-18T03:26:11.013Z,96
2019-05-18T03:31:43.588Z,96
2019-05-18T03:37:16.115Z,97
2019-05-18T03:42:48.511Z,97
2019-05-18T03:48:21.013Z,97
2019-05-18T03:53:53.549Z,97
2019-05-18T03:59:26.032Z,97
2019-05-18T04:04:58.514Z,97
2019-05-18T04:10:31.732Z,98
2019-05-18T04:16:05.070Z,99
2019-05-18T04:21:39.200Z,100
2019-05-18T04:27:10.761Z,100
2019-05-18T04:32:43.280Z,100
2019-05-18T04:38:15.876Z,100
2019-05-18T04:43:48.436Z,100
2019-05-18T04:49:20.944Z,99
2019-05-18T04:54:53.567Z,99
2019-05-18T05:00:26.176Z,99
2019-05-18T05:05:58.782Z,99
2019-05-18T05:11:31.365Z,98
2019-05-18T05:17:04.066Z,97
2019-05-18T05:22:36.789Z,97
2019-05-18T05:28:09.484Z,98
2019-05-18T05:33:42.095Z,98
2019-05-18T05:39:14.776Z,98
2019-05-18T05:44:48.002Z,98
2019-05-18T05:50:34.428Z,98
2019-05-18T05:55:55.096Z,97
2019-05-18T06:01:28.530Z,97
2019-05-18T06:07:02.198Z,96
2019-05-18T06:12:35.646Z,95
2019-05-18T06:18:08.864Z,95
2019-05-18T06:23:42.484Z,96
2019-05-18T06:29:16.164Z,95
2019-05-18T06:34:49.960Z,95
2019-05-18T06:40:23.607Z,95
2019-05-18T06:45:57.356Z,94
2019-05-18T06:51:31.089Z,93
2019-05-18T06:57:04.938Z,93
2019-05-18T07:02:38.875Z,92
2019-05-18T07:08:12.774Z,92
2019-05-18T07:13:46.696Z,90
2019-05-18T07:19:20.091Z,91
2019-05-18T07:24:53.354Z,89
2019-05-18T07:30:26.779Z,89
2019-05-18T07:36:00.621Z,88
2019-05-18T07:41:45.777Z,87
2019-05-18T07:47:07.795Z,87
2019-05-18T07:52:41.542Z,83
2019-05-18T07:58:15.563Z,85
2019-05-18T08:03:49.554Z,85
2019-05-18T08:09:23.765Z,84
2019-05-18T08:14:57.305Z,82
2019-05-18T08:20:32.219Z,82
2019-05-18T08:26:05.014Z,80
2019-05-18T08:31:38.851Z,76
2019-05-18T08:37:12.869Z,75
2019-05-18T08:42:47.356Z,72
2019-05-18T08:48:21.087Z,73
2019-05-18T08:53:55.127Z,74
2019-05-18T08:59:29.882Z,70
2019-05-18T09:05:05.039Z,69
2019-05-18T09:10:39.439Z,73
2019-05-18T09:16:13.871Z,73
2019-05-18T09:21:48.621Z,74
2019-05-18T09:27:23.505Z,73
2019-05-18T09:32:57.935Z,70
2019-05-18T09:38:33.474Z,67
2019-05-18T09:44:07.343Z,70
2019-05-18T09:49:42.371Z,72
2019-05-18T10:12:04.664Z,73
2019-05-18T10:28:50.907Z,71
2019-05-18T11:24:46.728Z,68
2019-05-18T11:30:21.945Z,66
2019-05-18T12:15:09.191Z,66
2019-05-18T13:05:30.226Z,64
2019-05-18T13:27:51.096Z,60
2019-05-18T13:33:25.408Z,58
2019-05-18T13:38:59.961Z,59
2019-05-18T13:55:45.632Z,61
2019-05-18T14:18:05.796Z,63
2019-05-18T14:23:39.799Z,62
2019-05-18T14:29:14.325Z,63
2019-05-18T14:34:49.208Z,64
2019-05-18T14:40:23.751Z,64
2019-05-18T14:45:58.510Z,62
2019-05-18T14:51:33.369Z,64
2019-05-18T14:57:08.102Z,66
2019-05-18T15:02:42.759Z,64
2019-05-18T15:08:16.821Z,63
2019-05-18T15:13:50.972Z,62
2019-05-18T15:19:24.882Z,63
2019-05-18T15:24:58.850Z,64
2019-05-18T15:30:32.816Z,64
2019-05-18T15:36:06.833Z,64
2019-05-18T15:41:40.945Z,64
2019-05-18T15:47:15.550Z,65
2019-05-18T15:52:49.876Z,65
2019-05-18T15:58:24.207Z,66
2019-05-18T16:09:34.504Z,66
2019-05-18T16:15:08.782Z,66
2019-05-18T16:20:42.729Z,65
2019-05-18T16:26:21.365Z,65
2019-05-18T16:31:51.200Z,65
2019-05-18T16:37:25.291Z,65
2019-05-18T16:42:59.827Z,66
2019-05-18T16:48:34.363Z,65
2019-05-18T16:54:08.701Z,66
2019-05-18T16:59:42.289Z,66
2019-05-18T17:05:15.899Z,66
2019-05-18T17:10:49.435Z,66
2019-05-18T17:16:22.959Z,66
2019-05-18T17:21:56.518Z,66
2019-05-18T17:27:30.545Z,66
2019-05-18T17:38:38.843Z,66
2019-05-18T17:44:12.789Z,67
2019-05-18T18:00:54.908Z,66
2019-05-18T18:06:28.375Z,66
2019-05-18T18:12:01.617Z,66
2019-05-18T18:17:34.849Z,67
2019-05-18T18:23:08.060Z,67
2019-05-18T18:28:41.215Z,72
2019-05-18T18:34:14.465Z,69
2019-05-18T18:39:47.584Z,70
2019-05-18T18:45:20.619Z,68
2019-05-18T18:50:53.835Z,69
2019-05-18T18:56:26.876Z,70
2019-05-18T19:02:00.650Z,74
2019-05-18T19:07:32.850Z,75
2019-05-18T19:13:05.976Z,76
2019-05-18T19:18:38.825Z,75
2019-05-18T19:24:11.784Z,75
2019-05-18T19:29:44.676Z,75
2019-05-18T19:35:17.813Z,78
2019-05-18T19:40:51.753Z,81
2019-05-18T19:46:24.599Z,78
2019-05-18T19:51:57.520Z,77
2019-05-18T19:57:30.438Z,76
2019-05-18T20:03:03.284Z,77
2019-05-18T20:08:36.253Z,75
2019-05-18T20:14:09.210Z,79
2019-05-18T20:19:42.125Z,78
2019-05-18T20:25:15.330Z,80
2019-05-18T20:30:48.319Z,80
2019-05-18T20:36:21.089Z,77
2019-05-18T20:41:54.033Z,77
2019-05-18T20:47:26.953Z,79
2019-05-18T20:52:59.763Z,79
2019-05-18T20:58:39.758Z,82
2019-05-18T21:04:05.624Z,78
2019-05-18T21:09:38.540Z,82
2019-05-18T21:15:04.820Z,82
2019-05-18T21:20:37.620Z,84
2019-05-18T21:26:03.107Z,89
2019-05-18T21:31:28.129Z,92
2019-05-18T21:37:00.847Z,94
2019-05-18T21:42:28.022Z,95
2019-05-18T21:48:00.736Z,94
2019-05-18T21:53:33.408Z,93
2019-05-18T21:59:11.464Z,93
2019-05-18T22:04:38.718Z,94
2019-05-18T22:10:24.723Z,94
2019-05-18T22:15:44.178Z,95
2019-05-18T22:21:16.808Z,96
2019-05-18T22:26:49.514Z,96
2019-05-18T22:32:22.502Z,96
2019-05-18T22:37:54.908Z,97
2019-05-18T22:43:27.603Z,97
2019-05-18T22:49:00.255Z,96
2019-05-18T22:54:32.981Z,96
2019-05-18T23:00:05.664Z,96
2019-05-18T23:05:38.304Z,96
2019-05-18T23:11:10.956Z,94
2019-05-18T23:16:43.654Z,91
2019-05-18T23:22:16.362Z,91
2019-05-18T23:27:49.041Z,94
2019-05-18T23:33:21.748Z,95
2019-05-18T23:38:54.478Z,96
2019-05-18T23:44:27.166Z,96
2019-05-18T23:49:59.965Z,96
2019-05-18T23:55:32.589Z,96
